createdAt,value
2022-12-18T00:02:47.690Z,18.6
2022-12-18T00:08:31.136Z,17.3
2022-12-18T00:14:14.787Z,17.3
2022-12-18T00:19:57.712Z,16.6
2022-12-18T00:25:40.617Z,15.7
2022-12-18T00:31:25.289Z,15.4
2022-12-18T00:37:09.531Z,16
2022-12-18T00:42:52.340Z,14.9
2022-12-18T00:48:35.553Z,14
2022-12-18T00:54:19.156Z,14.1
2022-12-18T01:00:01.961Z,14.1
2022-12-18T01:05:45.401Z,13.1
2022-12-18T01:11:28.282Z,13
2022-12-18T01:17:11.030Z,12.3
2022-12-18T01:22:57.464Z,12.2
2022-12-18T01:28:41.996Z,12.3
2022-12-18T01:34:25.054Z,11.3
2022-12-18T01:40:09.899Z,11.5
2022-12-18T01:45:52.916Z,10.5
2022-12-18T01:51:35.950Z,10.7
2022-12-18T01:57:19.156Z,10.7
2022-12-18T02:03:02.211Z,10.1
2022-12-18T02:08:49.520Z,8.9
2022-12-18T02:14:37.656Z,9.4
2022-12-18T02:20:24.755Z,9.1
2022-12-18T02:26:14.532Z,8.9
2022-12-18T02:31:59.266Z,9.2
2022-12-18T02:37:44.501Z,8.9
2022-12-18T02:43:27.093Z,8.2
2022-12-18T02:49:20.396Z,8.4
2022-12-18T02:55:08.903Z,8.3
2022-12-18T03:00:56.141Z,8.3
2022-12-18T03:06:42.794Z,7.9
2022-12-18T03:12:31.052Z,8
2022-12-18T03:18:15.970Z,7.4
2022-12-18T03:23:59.369Z,7.2
2022-12-18T03:29:45.059Z,7.5
2022-12-18T03:35:31.300Z,6.7
2022-12-18T03:41:17.270Z,7.1
2022-12-18T03:47:05.456Z,6.8
2022-12-18T03:52:52.223Z,7
2022-12-18T03:58:37.728Z,6.4
2022-12-18T04:04:21.461Z,6.4
2022-12-18T04:10:06.071Z,5.6
2022-12-18T04:15:49.087Z,6.4
2022-12-18T04:21:32.249Z,5.8
2022-12-18T04:27:15.241Z,5.7
2022-12-18T04:32:58.112Z,5.8
2022-12-18T04:38:40.924Z,5.6
2022-12-18T04:44:24.193Z,6.3
2022-12-18T04:50:07.792Z,6.2
2022-12-18T04:55:50.581Z,6.7
2022-12-18T05:01:37.020Z,5.9
2022-12-18T05:07:19.973Z,6.5
2022-12-18T05:13:03.224Z,6.3
2022-12-18T05:18:46.332Z,5.3
2022-12-18T05:24:29.443Z,5.5
2022-12-18T05:30:14.512Z,5.8
2022-12-18T05:35:58.253Z,5.4
2022-12-18T05:41:42.441Z,5.5
2022-12-18T05:47:26.314Z,5.3
2022-12-18T05:53:09.395Z,5.2
2022-12-18T05:58:54.121Z,5.1
2022-12-18T06:04:36.808Z,5.2
2022-12-18T06:10:19.668Z,5
2022-12-18T06:16:04.090Z,5
2022-12-18T06:21:46.900Z,5.2
2022-12-18T06:27:29.769Z,5
2022-12-18T06:33:12.698Z,4.9
2022-12-18T06:38:55.510Z,5.4
2022-12-18T06:44:38.212Z,4.7
2022-12-18T06:50:21.060Z,4.7
2022-12-18T06:56:12.168Z,5
2022-12-18T07:01:55.729Z,4.8
2022-12-18T07:07:39.632Z,4.7
2022-12-18T07:13:22.409Z,4.6
2022-12-18T07:19:05.474Z,4.7
2022-12-18T07:24:48.225Z,4.7
2022-12-18T07:30:30.989Z,5.2
2022-12-18T07:36:14.512Z,4.5
2022-12-18T07:41:57.379Z,5.1
2022-12-18T07:47:40.609Z,4.8
2022-12-18T07:53:23.405Z,4.8
2022-12-18T07:59:06.349Z,4.5
2022-12-18T08:04:49.213Z,5.2
2022-12-18T08:10:31.984Z,4.9
2022-12-18T08:16:14.968Z,5.2
2022-12-18T08:21:58.724Z,4.8
2022-12-18T08:27:42.143Z,5.2
2022-12-18T08:33:24.932Z,5.7
2022-12-18T08:39:07.905Z,5.5
2022-12-18T08:44:51.149Z,5.7
2022-12-18T08:50:33.906Z,5.2
2022-12-18T08:56:17.203Z,5.5
2022-12-18T09:02:00.508Z,5.4
2022-12-18T09:07:43.816Z,5.4
2022-12-18T09:13:27.185Z,6.2
2022-12-18T09:19:10.028Z,5.8
2022-12-18T09:24:52.989Z,6.3
2022-12-18T09:30:37.966Z,5.9
2022-12-18T09:36:23.622Z,6.6
2022-12-18T09:42:07.650Z,6.1
2022-12-18T09:47:51.889Z,6.1
2022-12-18T09:53:37.105Z,6.2
2022-12-18T09:59:24.352Z,6.2
2022-12-18T10:05:14.690Z,6.3
2022-12-18T10:11:00.280Z,6.7
2022-12-18T10:16:50.434Z,6.8
2022-12-18T10:22:42.034Z,7.3
2022-12-18T10:28:26.804Z,7.4
2022-12-18T10:34:11.438Z,7.6
2022-12-18T10:39:59.955Z,7.5
2022-12-18T10:45:42.853Z,7.7
2022-12-18T10:51:27.313Z,7.9
2022-12-18T10:57:25.770Z,7.9
2022-12-18T11:03:14.809Z,8.2
2022-12-18T11:09:13.409Z,8
2022-12-18T11:14:58.142Z,7.7
2022-12-18T11:20:41.585Z,8.2
2022-12-18T11:26:29.298Z,9.8
2022-12-18T11:32:30.433Z,8.8
2022-12-18T11:38:14.663Z,8.5
2022-12-18T11:43:59.153Z,8.7
2022-12-18T11:49:43.524Z,8.8
2022-12-18T11:55:31.158Z,9
2022-12-18T12:01:18.778Z,9.1
2022-12-18T12:07:06.977Z,15.9
2022-12-18T12:12:56.400Z,17.5
2022-12-18T12:18:45.003Z,15.8
2022-12-18T12:24:34.160Z,15.7
2022-12-18T12:30:23.085Z,14.2
2022-12-18T12:36:08.140Z,14.6
2022-12-18T12:41:51.413Z,14.8
2022-12-18T12:47:36.859Z,14.7
2022-12-18T12:53:25.270Z,14.1
2022-12-18T12:59:13.889Z,13.6
2022-12-18T13:05:01.382Z,13.3
2022-12-18T13:10:45.537Z,13.3
2022-12-18T13:16:29.686Z,13.5
2022-12-18T13:22:18.712Z,12.4
2022-12-18T13:28:10.565Z,12.5
2022-12-18T13:34:24.894Z,12
2022-12-18T13:39:56.128Z,12.6
2022-12-18T13:45:51.552Z,12.3
2022-12-18T13:51:35.970Z,12.9
2022-12-18T13:57:31.701Z,12.1
2022-12-18T14:03:24.829Z,12.6
2022-12-18T14:09:11.933Z,12.5
2022-12-18T14:15:01.004Z,12.3
2022-12-18T14:20:55.357Z,12.3
2022-12-18T14:26:38.421Z,11.9
2022-12-18T14:32:21.981Z,12.3
2022-12-18T14:38:20.566Z,11.8
2022-12-18T14:44:08.170Z,12
2022-12-18T14:49:51.357Z,11.9
2022-12-18T14:55:34.594Z,12
2022-12-18T15:01:24.871Z,11.8
2022-12-18T15:07:11.186Z,12.2
2022-12-18T15:12:59.237Z,11.9
2022-12-18T15:18:44.719Z,11.7
2022-12-18T15:24:29.901Z,12.2
2022-12-18T15:30:27.634Z,11.9
2022-12-18T15:36:13.460Z,11.7
2022-12-18T15:41:58.094Z,12.4
2022-12-18T15:47:41.569Z,11.3
2022-12-18T15:53:25.649Z,11.5
2022-12-18T15:59:11.642Z,12.2
2022-12-18T16:04:55.832Z,11.7
2022-12-18T16:10:38.657Z,11.6
2022-12-18T16:16:22.386Z,11.5
2022-12-18T16:22:16.892Z,11.4
2022-12-18T16:28:00.485Z,10.5
2022-12-18T16:33:45.659Z,11.1
2022-12-18T16:39:28.986Z,11.3
2022-12-18T16:45:13.369Z,10.6
2022-12-18T16:51:01.493Z,10.9
2022-12-18T16:56:44.653Z,10.9
2022-12-18T17:02:30.150Z,10.7
2022-12-18T17:08:13.264Z,10.6
2022-12-18T17:13:56.210Z,10.8
2022-12-18T17:19:42.065Z,10.2
2022-12-18T17:25:26.761Z,10.3
2022-12-18T17:31:18.604Z,10.8
2022-12-18T17:37:01.581Z,10.5
2022-12-18T17:42:45.189Z,10.4
2022-12-18T17:48:28.517Z,10.4
2022-12-18T17:54:11.794Z,10.2
2022-12-18T17:59:56.503Z,9.9
2022-12-18T18:05:39.574Z,10.2
2022-12-18T18:11:24.437Z,10.4
2022-12-18T18:17:07.462Z,10.2
2022-12-18T18:22:50.269Z,10.3
2022-12-18T18:28:33.473Z,10.7
2022-12-18T18:34:18.680Z,10.9
2022-12-18T18:40:04.114Z,9.8
2022-12-18T18:45:49.939Z,10.2
2022-12-18T18:51:36.831Z,10.1
2022-12-18T18:57:30.220Z,10.3
2022-12-18T19:03:13.904Z,10.6
2022-12-18T19:08:57.574Z,10
2022-12-18T19:14:40.674Z,10.6
2022-12-18T19:20:23.589Z,10.6
2022-12-18T19:26:27.273Z,10
2022-12-18T19:32:10.760Z,10.3
2022-12-18T19:37:55.172Z,10.6
2022-12-18T19:43:38.907Z,9.7
2022-12-18T19:49:22.739Z,9.6
2022-12-18T19:55:08.233Z,9.6
2022-12-18T20:00:51.662Z,9.6
2022-12-18T20:06:35.710Z,9.1
2022-12-18T20:12:18.738Z,10.3
2022-12-18T20:18:02.903Z,9.7
2022-12-18T20:23:46.553Z,9.8
2022-12-18T20:29:29.445Z,8.8
2022-12-18T20:35:12.832Z,8.7
2022-12-18T20:40:56.189Z,8.7
2022-12-18T20:46:39.369Z,9.3
2022-12-18T20:52:24.827Z,9.1
2022-12-18T20:58:07.762Z,9.1
2022-12-18T21:03:52.237Z,9
2022-12-18T21:09:39.668Z,9.4
2022-12-18T21:15:29.991Z,8.5
2022-12-18T21:21:13.568Z,8.6
2022-12-18T21:26:56.934Z,9.1
2022-12-18T21:32:42.644Z,8.8
2022-12-18T21:38:25.540Z,8.5
2022-12-18T21:44:08.634Z,8.8
2022-12-18T21:49:51.855Z,8.7
2022-12-18T21:55:34.931Z,8.6
2022-12-18T22:01:18.455Z,8.1
2022-12-18T22:07:01.538Z,7.7
2022-12-18T22:12:48.592Z,8.1
2022-12-18T22:18:36.788Z,8.9
2022-12-18T22:24:21.529Z,7.9
2022-12-18T22:30:05.777Z,8.7
2022-12-18T22:35:49.838Z,8.1
2022-12-18T22:41:34.502Z,8
2022-12-18T22:47:17.572Z,7.5
2022-12-18T22:53:00.556Z,7.7
2022-12-18T22:58:43.750Z,8.3
2022-12-18T23:04:31.208Z,7.7
2022-12-18T23:10:18.334Z,7.8
2022-12-18T23:16:01.239Z,8.1
2022-12-18T23:21:43.970Z,7.4
2022-12-18T23:27:26.764Z,8
2022-12-18T23:33:09.704Z,8.3
2022-12-18T23:38:54.111Z,7.4
2022-12-18T23:44:36.752Z,7.9
2022-12-18T23:50:29.858Z,7.5
2022-12-18T23:56:13.269Z,7.2
